Date,TemperatureHighF,TemperatureAvgF,TemperatureLowF,DewpointHighF,DewpointAvgF,DewpointLowF,HumidityHigh,HumidityAvg,HumidityLow,PressureMaxIn,PressureMinIn,WindSpeedMaxMPH,WindSpeedAvgMPH,GustSpeedMaxMPH,PrecipitationSumIn
2013-1-1,12.9,4.0,-1.8,1.5,-2.6,-6.7,81,74,58,30.24,30.13,2,0,6,0.00
2013-1-2,23.6,18.1,6.5,15.3,9.0,-0.6,79,68,46,30.13,30.01,6,1,14,0.00
2013-1-3,24.4,20.4,11.1,18.0,14.8,5.9,83,79,75,30.19,30.01,7,2,16,0.00
2013-1-4,29.0,17.8,8.1,16.8,10.8,2.1,87,74,60,30.16,30.04,4,1,15,0.00
2013-1-5,34.0,24.4,11.2,32.0,20.6,8.1,94,86,71,30.18,29.81,7,2,20,0.00
2013-1-6,33.8,24.2,14.1,30.6,18.8,11.2,89,80,70,30.25,29.80,9,3,20,0.00
2013-1-7,36.3,25.3,12.3,24.0,17.4,8.7,87,73,53,30.23,29.98,8,3,23,0.01
2013-1-8,37.9,31.1,19.2,29.7,25.2,17.0,92,79,66,30.06,29.86,7,2,18,0.17
2013-1-9,39.2,32.9,21.9,30.1,24.5,18.1,87,72,52,30.40,29.85,10,4,23,0.12
2013-1-10,39.8,29.9,18.4,34.5,24.8,16.2,96,82,59,30.45,29.80,5,1,14,0.24
2013-1-11,45.8,39.7,35.0,44.9,39.0,34.2,100,97,95,29.80,29.52,7,2,15,0.03
2013-1-12,49.1,35.6,23.2,44.2,28.1,16.2,94,74,63,29.95,29.53,10,5,25,0.03
2013-1-13,23.2,16.8,12.6,17.7,8.2,2.7,85,69,61,30.17,29.86,10,5,19,0.00
2013-1-14,23.8,14.1,6.9,8.4,4.7,0.9,76,66,49,30.42,30.18,4,0,15,0.00
2013-1-15,28.7,18.1,7.9,12.5,8.8,4.1,87,68,47,30.38,30.05,5,1,14,0.00
2013-1-16,32.7,25.6,16.1,27.6,17.2,7.2,83,70,56,30.04,29.71,8,3,23,0.00
2013-1-17,26.4,18.6,12.4,16.2,5.1,-1.8,76,56,39,30.36,30.01,8,2,16,0.00
2013-1-18,41.1,29.2,11.1,31.0,20.7,5.1,79,70,61,30.38,29.75,13,4,33,0.04
2013-1-19,43.5,35.6,14.6,32.3,26.3,-1.1,83,70,34,29.89,29.57,20,6,41,0.04
2013-1-20,14.1,9.8,5.8,-0.8,-3.4,-5.8,63,55,44,30.28,29.90,16,5,35,0.00
2013-1-21,9.9,2.3,-3.9,0.0,-9.1,-14.8,77,58,46,30.28,30.11,12,6,24,0.00
2013-1-22,5.8,-0.6,-7.2,-7.6,-12.2,-17.8,67,57,48,30.36,30.27,9,3,18,0.00
2013-1-23,17.5,10.5,0.5,11.0,1.6,-7.6,83,67,55,30.38,30.05,11,3,23,0.00
2013-1-24,17.2,7.4,-0.6,6.7,-3.5,-9.6,66,60,53,30.64,30.33,7,2,16,0.00
2013-1-25,24.4,18.9,14.1,15.5,10.3,1.7,87,69,50,30.31,29.89,8,3,18,0.00
2013-1-26,23.6,15.7,5.6,11.0,5.6,0.1,79,65,48,30.36,30.16,5,1,14,0.00
2013-1-27,32.1,27.2,22.2,31.1,20.9,10.8,96,78,61,30.30,29.81,5,2,15,0.00
2013-1-28,40.5,34.8,31.3,34.4,32.0,28.4,100,90,71,29.89,29.71,6,1,11,0.22
2013-1-29,55.1,42.9,34.6,54.5,42.0,32.8,100,97,87,29.71,29.39,7,2,16,0.50
2013-1-30,35.2,27.2,15.2,34.4,25.1,9.3,97,92,77,29.55,29.25,11,5,22,0.02
2013-1-31,15.1,9.5,1.3,9.5,1.2,-7.6,79,69,61,30.12,29.56,11,8,23,0.02
2013-2-1,4.8,0.0,-5.2,0.0,-8.7,-13.1,80,66,55,30.31,30.12,8,3,19,0.00
2013-2-2,9.9,5.8,0.1,1.5,-1.6,-6.1,81,71,57,30.12,30.01,6,1,12,0.00
2013-2-3,17.8,11.0,1.5,10.2,3.8,-3.8,83,73,57,30.01,29.92,11,2,23,0.00
2013-2-4,15.6,11.5,4.3,10.6,4.5,-2.6,85,74,53,29.98,29.91,5,1,14,0.00
2013-2-5,27.0,17.3,0.7,21.3,11.6,-4.3,87,78,69,30.06,29.74,6,2,14,0.00
2013-2-6,31.6,19.5,1.3,26.7,13.0,-3.1,87,76,61,30.19,30.02,3,0,9,0.09
2013-2-7,33.4,30.2,20.5,31.6,27.9,18.0,95,91,83,30.02,29.85,8,2,20,0.07
2013-2-8,22.9,17.9,4.8,18.0,12.8,1.0,90,81,68,30.37,30.01,8,3,23,0.01
2013-2-9,28.1,21.5,5.0,23.0,17.6,1.0,91,85,76,30.37,30.04,7,2,20,0.01
2013-2-10,41.3,33.3,19.2,40.5,31.4,16.7,97,93,77,30.03,29.33,9,3,25,0.20
2013-2-11,38.6,30.6,25.6,31.7,24.2,17.9,84,77,68,29.93,29.34,15,8,29,0.21
2013-2-12,28.5,23.6,20.3,19.5,16.5,13.6,87,74,61,30.04,29.82,8,3,16,0.00
2013-2-13,38.2,27.6,15.1,27.9,22.2,12.7,92,81,64,29.82,29.62,5,1,12,0.00
2013-2-14,35.0,32.3,27.2,32.5,26.9,19.1,93,81,66,29.93,29.50,11,4,23,0.03
2013-2-15,26.7,19.3,11.6,22.8,7.4,1.0,85,60,44,30.17,29.94,8,4,16,0.03
2013-2-16,17.5,10.5,2.4,2.4,-0.9,-3.7,76,60,42,30.18,30.11,8,2,16,0.00
2013-2-17,24.7,14.0,-1.0,12.3,2.4,-5.9,82,61,41,30.19,29.90,4,1,12,0.00
2013-2-18,44.6,33.4,24.1,37.8,25.7,12.6,95,74,61,29.89,29.38,10,4,20,0.16
2013-2-19,25.3,12.9,6.7,23.3,6.6,-3.2,92,76,63,30.14,29.47,11,7,23,0.16
2013-2-20,20.6,11.8,3.9,8.8,2.6,-4.2,74,66,56,30.36,30.15,7,3,18,0.01
2013-2-21,25.6,17.7,8.1,22.8,12.4,1.9,91,79,70,30.40,30.03,7,3,14,0.01
2013-2-22,30.1,26.6,23.2,26.4,23.6,19.8,92,88,81,30.02,29.73,7,2,16,0.01
2013-2-23,30.1,25.1,19.1,21.9,18.6,13.4,85,76,63,29.89,29.78,5,1,12,0.01
2013-2-24,36.0,24.0,14.6,22.9,17.1,10.7,89,75,56,30.10,29.89,2,0,6,0.04
2013-2-25,40.8,27.6,14.4,25.3,20.0,11.8,91,75,51,30.13,29.98,2,0,7,0.04
2013-2-26,32.9,31.3,28.8,28.9,25.6,22.7,93,80,67,29.98,29.57,11,6,31,0.00
2013-2-27,31.6,29.8,27.5,29.3,27.5,25.3,93,91,87,29.72,29.55,8,6,23,0.12
2013-2-28,33.4,30.0,23.3,29.5,24.3,16.0,93,80,66,30.09,29.72,9,5,21,0.09
2013-3-1,25.4,22.2,16.5,18.2,14.9,7.4,82,73,62,30.22,30.07,9,4,22,0.09
2013-3-2,25.1,16.5,6.9,12.9,7.9,2.8,83,69,56,30.22,30.13,7,2,14,0.01
2013-3-3,27.5,13.3,1.5,10.3,3.9,-3.2,84,68,44,30.15,30.07,4,0,8,0.02
2013-3-4,34.0,22.2,6.9,22.7,14.3,0.9,80,72,56,30.10,29.99,7,2,16,0.04
2013-3-5,30.4,27.6,24.1,26.7,23.4,20.9,93,85,69,30.03,29.83,8,3,21,0.04
2013-3-6,31.5,28.0,24.8,24.8,22.6,19.7,88,80,73,30.26,30.03,8,4,16,0.15
2013-3-7,33.7,23.4,13.1,19.4,15.0,9.1,88,71,52,30.39,30.25,3,0,8,0.11
2013-3-8,39.5,27.1,13.3,25.4,19.9,10.7,92,75,54,30.43,30.23,7,1,15,0.03
2013-3-9,41.3,34.8,28.2,34.0,28.7,22.1,94,79,62,30.22,29.73,6,2,21,0.24
2013-3-10,41.1,37.4,35.2,40.3,36.4,33.9,97,96,94,29.74,29.56,9,2,18,0.59
2013-3-11,35.0,32.5,29.4,34.0,31.0,23.1,97,94,77,29.68,29.48,10,3,23,0.06
2013-3-12,33.5,28.3,25.1,24.3,21.1,15.9,91,75,57,29.95,29.69,10,5,23,0.03
2013-3-13,32.4,24.3,18.3,19.4,10.2,5.5,81,56,32,30.26,29.96,10,5,22,0.03
2013-3-14,35.8,24.7,13.5,25.2,16.2,7.8,90,71,51,30.26,30.01,5,1,10,0.00
2013-3-15,34.6,29.9,24.5,31.7,26.7,22.8,94,88,79,30.01,29.76,5,1,12,0.05
2013-3-16,30.3,25.8,20.3,23.9,18.7,14.8,89,75,61,30.09,29.76,7,4,16,0.01
2013-3-17,30.3,23.5,16.5,18.3,12.6,5.8,77,63,53,30.22,29.97,6,3,13,0.01
2013-3-18,32.4,27.5,17.0,29.5,22.8,8.2,91,82,68,29.97,29.51,11,3,24,0.16
2013-3-19,28.8,19.4,12.4,10.9,7.1,4.8,72,59,42,30.00,29.67,14,8,26,0.16
2013-3-20,20.6,14.5,8.8,5.6,0.6,-4.1,61,54,46,30.04,29.98,12,6,23,0.00
2013-3-21,28.7,17.3,7.9,11.4,5.0,-1.0,69,59,45,30.02,29.97,8,2,15,0.00
2013-3-22,33.7,22.2,10.5,15.3,10.3,3.6,79,61,43,30.04,29.98,3,0,8,0.00
2013-3-23,37.6,26.9,16.9,22.5,16.4,12.9,86,67,42,30.10,30.01,5,1,12,0.00
2013-3-24,33.4,29.8,28.1,28.2,23.7,19.5,90,78,65,30.02,29.73,9,4,21,0.08
2013-3-25,34.3,29.5,22.7,24.5,21.4,17.4,81,72,61,30.03,29.77,9,4,20,0.08
2013-3-26,41.3,34.2,29.4,26.5,23.2,20.9,77,64,51,30.19,30.03,8,3,14,0.00
2013-3-27,41.8,34.6,26.9,24.1,21.0,18.3,72,58,40,30.25,30.19,6,2,12,0.00
2013-3-28,44.9,33.1,23.8,22.3,18.4,16.0,79,57,31,30.29,30.23,5,1,10,0.00
2013-3-29,47.7,34.9,22.1,25.8,21.0,16.0,88,60,31,30.27,30.17,4,1,9,0.00
2013-3-30,53.9,39.8,28.4,39.7,28.9,20.5,86,66,49,30.17,29.74,7,2,18,0.01
2013-3-31,48.0,39.3,31.9,40.0,32.0,17.3,93,76,51,29.83,29.64,14,6,27,0.01
2013-4-1,35.3,30.0,25.4,18.8,12.6,7.8,65,48,32,30.13,29.83,12,6,23,0.00
2013-4-2,39.3,30.8,23.9,16.1,12.4,7.1,62,48,27,30.26,30.13,10,4,22,0.00
2013-4-3,44.5,33.3,21.1,19.0,13.9,6.6,78,48,22,30.41,30.22,5,1,12,0.00
2013-4-4,57.6,42.2,29.4,34.5,24.3,15.2,67,50,34,30.22,29.88,10,4,23,0.00
2013-4-5,47.1,37.8,27.2,26.4,22.8,16.3,84,56,34,30.18,29.96,6,2,13,0.00
2013-4-6,61.6,46.9,33.8,49.1,33.3,15.9,88,61,41,30.10,29.46,10,4,26,0.06
2013-4-7,52.2,43.0,36.2,47.9,33.5,29.4,87,70,50,29.90,29.47,15,5,29,0.07
2013-4-8,47.3,41.8,36.2,42.7,37.6,28.8,95,85,71,29.93,29.56,8,3,18,0.51
2013-4-9,41.2,38.6,36.0,40.1,37.1,33.6,97,94,89,29.98,29.81,9,4,21,1.00
2013-4-10,37.5,35.4,32.1,35.4,33.1,30.1,95,91,87,30.01,29.83,9,6,23,0.35
2013-4-11,37.6,36.0,34.9,35.7,34.0,31.8,94,92,88,29.88,29.52,14,6,32,0.13
2013-4-12,40.1,36.3,34.1,36.1,32.8,26.7,96,87,74,29.73,29.46,8,4,19,0.01
2013-4-13,37.6,34.8,30.9,28.6,25.9,22.5,84,70,56,29.94,29.72,11,5,22,0.01
2013-4-14,52.8,37.9,29.1,45.1,32.4,24.3,90,81,66,29.95,29.51,10,4,23,0.06
2013-4-15,59.5,49.9,41.2,50.2,42.8,33.3,97,79,42,29.88,29.48,11,3,21,0.09
2013-4-16,52.2,42.2,32.9,36.3,31.5,28.0,88,67,46,30.23,29.88,10,3,19,0.09
2013-4-17,42.3,40.2,37.9,41.0,35.2,30.1,95,83,68,30.26,29.81,9,3,22,0.74
2013-4-18,58.6,46.6,38.2,57.6,44.9,32.2,97,94,75,29.82,29.25,11,3,28,0.23
2013-4-19,39.1,35.1,30.9,32.1,26.8,18.2,83,72,58,29.84,29.29,14,8,32,0.03
2013-4-20,43.6,34.0,26.0,23.1,15.9,8.9,71,50,26,30.35,29.85,10,4,23,0.03
2013-4-21,51.1,40.0,29.3,31.0,24.9,20.3,79,56,36,30.45,30.20,7,2,20,0.00
2013-4-22,67.4,52.7,42.1,40.5,34.0,30.7,66,50,30,30.20,29.92,7,3,18,0.00
2013-4-23,53.3,43.8,36.9,47.1,36.4,27.8,89,76,52,29.93,29.80,10,4,24,0.19
2013-4-24,52.8,42.4,32.9,28.9,23.9,18.4,74,51,27,29.97,29.91,9,4,18,0.19
2013-4-25,51.4,43.2,34.7,35.0,29.9,24.5,90,62,38,30.22,29.89,11,4,21,0.07
2013-4-26,68.3,52.9,33.7,44.3,36.0,25.7,82,54,39,30.22,30.06,12,5,29,0.07
2013-4-27,65.2,55.9,46.5,48.1,43.8,40.2,87,65,43,30.14,29.93,6,2,18,0.00
2013-4-28,71.1,57.0,43.9,49.4,42.3,37.9,85,61,32,29.92,29.71,3,0,9,0.00
2013-4-29,68.3,60.0,48.9,54.8,50.8,47.0,94,73,51,29.77,29.64,7,2,18,0.02
2013-4-30,85.7,71.3,59.8,59.5,53.0,44.4,87,58,24,29.78,29.59,12,6,29,0.02
2013-5-1,82.4,67.9,52.5,56.1,50.5,39.8,81,55,33,30.12,29.78,8,3,19,0.00
2013-5-2,53.9,45.8,37.6,46.5,38.3,33.1,92,76,59,30.20,30.11,10,6,24,0.48
2013-5-3,49.2,42.0,35.8,46.4,40.1,34.0,94,93,88,30.14,29.93,6,3,18,0.29
2013-5-4,70.3,58.1,46.5,50.7,45.9,42.3,91,66,41,29.97,29.90,6,1,15,0.30
2013-5-5,72.5,58.9,44.8,49.8,43.0,38.3,90,59,31,29.98,29.92,5,1,13,0.00
2013-5-6,75.1,60.8,45.2,46.9,39.0,30.9,81,49,21,29.99,29.90,3,1,10,0.00
2013-5-7,77.4,64.3,48.0,45.5,39.9,34.1,79,44,23,29.98,29.89,3,1,12,0.00
2013-5-8,81.4,65.3,46.7,48.3,43.1,35.5,89,50,21,29.96,29.86,3,0,9,0.00
2013-5-9,67.4,57.0,44.5,58.3,50.2,42.7,95,79,57,29.87,29.79,6,1,21,0.73
2013-5-10,49.6,44.0,40.8,44.3,41.2,39.0,96,90,79,29.93,29.79,9,4,21,0.06
2013-5-11,53.1,46.0,38.8,49.4,35.1,20.9,97,69,30,29.97,29.71,15,6,34,0.01
2013-5-12,53.3,43.9,35.8,29.5,24.6,19.3,66,48,27,30.05,29.96,10,6,23,0.01
2013-5-13,62.4,47.3,31.0,35.1,29.9,22.2,94,56,23,30.11,29.85,4,1,13,0.00
2013-5-14,83.8,66.9,48.0,54.9,46.0,31.9,59,48,30,29.85,29.46,11,2,14,0.00
2013-5-15,77.6,69.5,55.9,58.2,44.7,36.4,68,43,24,29.76,29.44,9,4,21,0.00
2013-5-16,83.6,65.2,49.5,51.9,42.2,26.2,85,46,24,29.88,29.75,6,1,18,0.00
2013-5-17,58.7,55.5,47.9,50.3,42.6,24.8,95,64,27,30.03,29.87,5,1,15,0.60
2013-5-18,78.1,64.9,52.8,61.5,53.9,43.7,86,68,51,29.98,29.84,3,0,12,0.60
2013-5-19,85.1,71.4,58.4,64.3,59.1,50.5,90,67,41,29.86,29.55,9,2,24,0.01
2013-5-20,83.0,74.2,63.4,61.6,57.8,54.3,87,58,38,29.66,29.55,9,3,25,0.02
2013-5-21,79.6,68.9,59.8,64.7,58.6,54.1,88,71,43,29.60,29.51,7,3,22,0.11
2013-5-22,66.4,60.6,54.1,63.6,58.1,53.0,96,92,78,29.69,29.54,4,0,10,1.43
2013-5-23,58.0,50.9,40.9,52.8,43.2,33.5,96,77,43,30.25,29.69,8,5,23,0.02
2013-5-24,61.8,48.7,36.2,40.9,35.5,30.7,92,63,36,30.38,30.23,5,1,11,0.02
2013-5-25,61.0,53.2,44.6,37.8,34.2,29.2,73,49,36,30.32,30.22,4,1,12,0.00
2013-5-26,66.0,54.3,39.2,48.1,39.3,32.3,86,59,35,30.24,30.08,5,1,14,0.01
2013-5-27,55.0,52.3,50.1,51.5,47.4,38.4,96,84,57,30.09,29.82,5,1,16,0.04
2013-5-28,73.3,60.9,50.5,66.5,58.4,49.4,98,92,76,29.82,29.62,4,0,14,0.36
2013-5-29,81.2,70.9,60.7,66.7,62.6,59.3,98,77,54,29.81,29.68,6,1,16,0.37
2013-5-30,85.1,73.7,63.1,69.8,64.4,60.1,93,74,50,29.78,29.62,9,4,26,0.33
2013-5-31,75.1,68.0,62.1,65.5,61.9,58.4,96,82,57,29.70,29.59,6,2,21,0.36
2013-6-1,77.2,69.5,62.3,67.1,61.5,54.2,97,78,53,29.59,29.51,7,2,20,0.05
2013-6-2,63.2,54.8,46.5,56.8,44.3,39.5,89,69,46,29.95,29.59,11,4,23,0.00
2013-6-3,69.9,57.2,42.5,47.7,42.3,38.3,97,62,34,30.02,29.94,3,0,11,0.00
2013-6-4,70.6,59.9,51.7,49.6,44.9,40.2,83,59,40,30.09,29.99,4,0,15,0.03
2013-6-5,65.0,56.5,51.7,52.5,48.8,46.6,90,76,56,30.06,29.89,4,0,12,0.04
2013-6-6,59.9,55.6,51.4,53.3,50.7,46.1,95,84,75,29.89,29.84,5,0,14,0.26
2013-6-7,71.8,60.9,52.6,51.6,47.0,40.0,84,63,34,29.91,29.83,4,0,10,0.00
2013-6-8,72.5,60.9,49.1,51.2,47.1,41.6,94,64,34,29.92,29.84,2,0,9,0.00
2013-6-9,79.0,67.4,55.6,58.9,53.6,46.0,80,62,41,29.93,29.72,6,2,21,0.00
2013-6-10,80.7,70.5,59.9,63.9,60.4,57.3,92,72,51,29.75,29.67,4,0,10,0.00
2013-6-11,84.3,72.8,59.6,64.6,61.5,58.5,96,70,45,29.82,29.70,4,1,12,0.00
2013-6-12,77.4,68.9,60.4,66.3,63.9,58.7,96,85,66,29.81,29.52,11,1,35,1.09
2013-6-13,76.1,66.3,57.5,58.0,55.5,52.7,94,70,48,29.98,29.61,7,2,20,1.09
2013-6-14,77.4,65.4,52.9,56.0,51.8,45.5,93,64,44,30.06,29.91,3,0,10,0.00
2013-6-15,79.6,67.6,55.1,68.8,60.6,45.1,96,79,56,30.00,29.72,6,1,18,0.83
2013-6-16,84.0,73.4,62.6,65.7,58.0,47.7,98,64,30,29.81,29.73,8,2,16,0.84
2013-6-17,85.7,71.3,59.2,60.5,55.7,51.5,86,61,32,29.88,29.77,8,2,25,0.00
2013-6-18,71.5,61.3,52.9,55.3,49.6,42.8,85,67,40,30.02,29.88,6,1,16,0.00
2013-6-19,77.7,63.7,47.0,50.6,46.1,41.3,91,56,33,30.07,29.98,2,0,11,0.00
2013-6-20,85.9,71.3,55.4,61.1,51.7,40.2,64,51,31,30.05,29.95,3,1,13,0.00
2013-6-21,75.8,70.5,65.2,68.4,63.4,54.4,96,79,59,30.01,29.78,11,1,26,0.51
2013-6-22,79.4,71.2,66.3,70.6,67.1,64.3,96,88,70,30.00,29.80,7,1,30,0.39
2013-6-23,85.9,73.9,63.4,71.8,66.7,62.5,97,80,60,29.92,29.76,6,2,18,0.41
2013-6-24,79.8,72.8,66.8,68.7,66.6,64.1,96,82,64,29.92,29.73,5,1,13,0.00
2013-6-25,82.2,72.4,65.2,71.7,68.2,64.3,97,88,67,29.86,29.69,3,0,12,0.22
2013-6-26,80.9,72.9,66.8,70.0,67.2,64.1,97,84,61,29.71,29.61,2,0,13,0.30
2013-6-27,86.1,75.8,68.3,71.2,66.9,60.6,96,76,51,29.68,29.58,7,2,16,0.04
2013-6-28,77.0,70.3,63.9,65.0,61.6,57.6,94,75,54,29.63,29.52,10,4,22,0.04
2013-6-29,73.2,66.7,63.4,63.7,60.5,55.8,95,81,59,29.74,29.52,7,2,19,0.07
2013-6-30,77.2,67.1,57.0,59.7,52.7,44.6,86,62,36,29.95,29.75,7,2,20,0.07
2013-7-1,79.2,68.3,56.2,54.9,50.0,44.8,80,55,31,30.03,29.95,6,2,20,0.00
2013-7-2,75.3,64.6,54.7,52.5,47.9,38.6,89,57,28,30.03,29.98,5,1,14,0.00
2013-7-3,70.4,65.1,59.9,63.3,58.0,46.7,92,78,61,30.00,29.93,3,0,12,0.03
2013-7-4,82.6,72.3,61.0,63.7,58.8,51.6,97,67,35,29.99,29.91,3,0,12,0.01
2013-7-5,84.7,74.5,61.5,65.1,61.5,59.1,93,66,44,29.97,29.89,6,1,15,0.01
2013-7-6,85.9,73.8,61.8,66.2,61.8,58.4,95,69,40,29.94,29.84,3,0,12,0.00
2013-7-7,87.0,77.2,66.4,71.2,66.9,61.3,95,72,51,29.88,29.80,4,1,14,0.00
2013-7-8,87.6,77.8,71.6,73.4,70.2,67.8,94,78,58,29.87,29.78,7,2,15,0.03
2013-7-9,84.1,75.1,68.4,74.3,70.6,66.5,96,86,68,29.89,29.71,5,1,16,0.24
2013-7-10,78.5,73.1,64.7,72.2,61.1,52.1,96,68,42,29.92,29.73,9,4,20,0.24
2013-7-11,80.9,68.9,56.5,60.0,55.0,48.0,96,65,35,30.03,29.93,3,0,10,0.00
2013-7-12,83.2,69.8,55.0,58.3,52.5,41.5,94,59,24,30.08,29.98,3,0,10,0.00
2013-7-13,83.4,71.5,57.8,62.2,56.9,54.1,90,63,39,30.07,29.99,4,1,12,0.00
2013-7-14,86.3,76.1,63.2,68.0,63.4,57.3,87,66,48,30.12,30.05,3,0,14,0.00
2013-7-15,91.2,78.7,66.8,75.4,69.1,64.4,94,74,48,30.17,30.11,3,0,12,0.01
2013-7-16,92.5,84.7,73.2,75.0,73.1,71.6,96,70,51,30.17,30.11,2,1,13,0.00
2013-7-17,94.0,83.0,73.7,74.4,72.1,69.5,95,72,46,30.18,30.05,5,1,12,0.00
2013-7-18,92.7,83.5,72.7,74.0,71.7,69.3,96,70,48,30.06,29.78,6,2,23,0.00
2013-7-19,90.7,82.5,73.3,73.0,68.9,60.6,83,65,48,29.78,29.61,6,2,19,0.00
2013-7-20,84.5,71.7,62.1,66.2,60.8,55.7,91,70,40,29.88,29.72,6,1,13,0.04
2013-7-21,80.5,67.0,59.9,69.2,59.5,54.3,96,78,54,29.89,29.77,12,0,30,1.15
2013-7-22,84.7,74.7,61.2,70.2,65.7,60.1,98,76,51,29.80,29.53,6,1,15,0.04
2013-7-23,73.9,68.3,58.7,63.9,56.3,50.4,89,67,49,29.91,29.60,8,3,19,0.04
2013-7-24,74.2,63.0,52.8,54.0,50.8,46.0,94,68,40,30.00,29.92,3,0,9,0.00
2013-7-25,78.5,66.9,52.9,63.9,57.5,50.7,95,74,53,29.99,29.87,5,1,13,0.02
2013-7-26,73.3,66.2,60.7,68.0,61.6,54.8,96,86,59,29.87,29.75,5,1,13,0.45
2013-7-27,60.7,55.8,51.3,56.4,48.1,43.5,92,76,58,29.87,29.79,8,3,19,0.46
2013-7-28,67.4,58.1,50.1,53.3,50.0,46.4,94,76,55,29.91,29.76,8,3,20,0.01
2013-7-29,73.2,62.5,52.6,57.9,53.5,49.8,92,73,53,30.09,29.91,4,0,10,0.00
2013-7-30,74.6,65.2,56.2,62.7,58.8,54.5,95,81,58,30.10,30.00,1,0,10,0.00
2013-7-31,78.5,66.9,59.6,67.4,62.1,57.5,97,86,61,30.00,29.86,6,0,20,0.15
2013-8-1,77.4,67.7,59.0,59.4,55.5,50.4,96,69,40,29.91,29.82,8,2,16,0.16
2013-8-2,80.9,70.0,60.9,65.9,58.7,54.5,96,70,42,29.85,29.74,7,2,13,0.03
2013-8-3,77.6,68.6,53.1,57.5,52.2,47.6,95,59,35,30.03,29.86,8,2,16,0.00
2013-8-4,74.9,67.2,54.1,57.9,53.8,46.9,94,64,37,30.14,30.03,3,0,11,0.00
2013-8-5,73.5,65.6,56.7,63.0,59.3,54.4,95,81,64,29.99,29.77,5,1,15,0.03
2013-8-6,83.8,72.7,63.9,69.2,66.0,62.7,97,81,56,29.78,29.68,4,1,13,0.03
2013-8-7,80.1,72.7,63.9,70.8,64.5,60.1,95,77,54,29.88,29.64,7,2,15,0.00
2013-8-8,78.3,67.8,59.9,61.0,55.9,47.5,96,68,44,29.96,29.88,2,0,9,0.00
2013-8-9,79.8,68.5,56.3,64.7,56.1,48.8,82,65,46,29.96,29.88,6,1,13,0.00
2013-8-10,75.4,65.6,54.7,57.8,54.8,51.7,94,71,47,30.06,29.96,5,1,10,0.00
2013-8-11,74.0,66.9,56.7,64.5,62.1,55.6,96,85,69,30.06,29.93,3,0,10,0.11
2013-8-12,80.5,71.3,62.6,67.2,61.6,56.1,98,74,48,29.90,29.80,7,1,15,0.00
2013-8-13,70.6,62.3,50.4,51.2,48.2,45.4,88,62,43,30.09,29.97,8,2,19,0.00
2013-8-14,72.7,60.4,47.6,52.1,48.9,46.2,96,69,40,30.15,30.04,4,1,11,0.00
2013-8-15,77.4,65.7,54.1,57.6,52.7,45.9,92,66,34,30.07,30.00,4,0,11,0.00
2013-8-16,80.7,67.1,53.1,57.8,53.9,49.8,96,67,36,30.10,30.03,4,1,11,0.00
2013-8-17,81.1,67.1,53.2,59.2,54.0,49.7,96,67,34,30.16,30.07,2,0,11,0.00
2013-8-18,80.7,67.5,52.8,58.3,55.1,51.5,97,68,40,30.14,30.00,4,0,13,0.00
2013-8-19,81.8,69.2,56.0,62.6,58.8,54.3,95,72,44,30.02,29.92,4,0,12,0.00
2013-8-20,86.3,73.7,61.6,66.9,62.9,59.0,96,72,40,29.99,29.90,6,1,19,0.00
2013-8-21,88.4,78.0,68.3,69.3,66.5,63.6,86,69,49,29.93,29.80,7,2,22,0.00
2013-8-22,79.8,70.9,62.4,70.1,65.8,56.4,97,84,65,30.04,29.88,7,0,20,1.10
2013-8-23,80.7,68.3,55.9,60.8,56.5,52.8,92,69,40,30.10,30.03,2,0,10,1.10
2013-8-24,83.4,70.2,55.7,66.1,60.8,54.2,96,74,51,30.16,30.07,4,1,12,0.00
2013-8-25,89.3,77.2,66.0,68.7,64.2,57.4,86,66,46,30.10,29.98,5,2,20,0.00
2013-8-26,89.7,78.7,70.3,75.0,69.0,64.1,83,73,58,30.04,29.84,5,1,14,0.00
2013-8-27,93.2,82.2,72.7,74.5,71.7,69.0,89,72,51,29.85,29.68,7,1,20,0.00
2013-8-28,85.5,76.3,67.6,73.8,69.1,64.7,92,79,57,29.95,29.71,4,0,11,0.00
2013-8-29,87.4,75.2,62.7,69.3,66.2,61.5,97,76,50,29.99,29.87,4,0,11,0.00
2013-8-30,92.1,76.2,68.4,75.7,69.6,63.7,94,81,57,29.87,29.66,6,1,16,0.10
2013-8-31,80.1,70.1,63.5,66.2,63.5,60.8,94,81,57,29.79,29.70,3,0,9,0.10
2013-9-1,84.3,70.8,62.3,70.5,64.5,57.6,98,82,58,29.74,29.60,6,1,15,0.02
2013-9-2,70.1,63.3,53.3,59.0,55.5,49.8,93,77,53,29.92,29.73,6,2,15,0.02
2013-9-3,75.3,60.0,47.6,54.5,50.8,46.1,96,75,37,30.02,29.92,2,0,9,0.00
2013-9-4,82.0,66.4,52.0,62.8,57.4,50.8,97,76,44,30.04,29.94,6,1,14,0.00
2013-9-5,73.7,65.0,55.0,61.9,54.0,46.7,93,69,48,30.19,30.04,2,0,11,0.00
2013-9-6,86.5,68.2,49.1,65.7,57.6,46.9,95,71,47,30.14,29.87,4,0,14,0.00
2013-9-7,87.6,75.3,67.3,72.3,66.4,62.0,91,75,53,29.89,29.77,5,1,14,0.00
2013-9-8,70.9,67.2,62.4,64.9,61.9,58.1,89,83,76,29.98,29.86,3,0,16,0.00
2013-9-9,90.5,77.2,65.0,75.3,69.2,61.8,96,78,57,29.88,29.66,4,1,16,0.00
2013-9-10,95.1,82.6,71.3,69.8,62.8,57.7,75,54,30,29.83,29.70,5,1,21,0.00
2013-9-11,81.8,72.6,65.8,68.7,64.8,61.4,96,78,52,30.00,29.83,5,1,15,0.05
2013-9-12,73.3,65.2,56.2,63.4,54.8,45.0,97,72,44,30.05,29.88,10,3,22,0.05
2013-9-13,64.3,53.7,44.6,45.9,41.3,33.8,87,65,34,30.16,30.05,6,1,16,0.00
2013-9-14,70.6,56.0,40.3,49.1,43.9,39.0,97,68,38,30.11,29.91,4,0,11,0.00
2013-9-15,59.6,55.8,52.9,56.2,52.0,44.3,97,88,60,30.16,29.91,5,1,12,0.39
2013-9-16,64.5,52.6,41.6,49.7,43.3,39.1,91,73,44,30.32,30.16,5,1,16,0.39
2013-9-17,69.4,55.4,40.5,54.8,47.8,39.0,97,78,51,30.28,30.01,3,1,13,0.00
2013-9-18,77.9,66.3,57.2,65.9,60.4,53.5,96,82,61,30.01,29.79,5,1,16,0.21
2013-9-19,84.1,71.7,66.3,73.0,67.9,62.2,97,88,59,29.80,29.60,9,1,24,0.84
2013-9-20,73.0,65.2,55.9,65.5,59.7,50.5,98,83,59,29.73,29.61,10,2,24,0.01
2013-9-21,57.8,52.7,46.2,53.4,46.3,42.5,93,80,59,29.88,29.73,8,2,18,0.01
2013-9-22,63.9,51.1,41.2,44.9,42.0,39.6,95,74,42,30.02,29.89,2,0,10,0.00
2013-9-23,66.6,53.1,41.8,50.4,46.4,40.5,97,80,53,30.06,29.97,2,0,10,0.00
2013-9-24,69.9,56.9,47.9,53.6,49.5,46.4,97,79,49,29.99,29.89,3,0,11,0.01
2013-9-25,69.9,56.5,44.8,58.5,49.7,43.7,98,80,51,29.93,29.87,1,0,9,0.01
2013-9-26,75.3,59.6,44.6,59.6,50.0,43.5,98,74,43,30.00,29.91,3,0,14,0.01
2013-9-27,79.8,64.1,50.5,56.2,52.0,48.4,97,69,35,30.07,29.95,5,1,14,0.00
2013-9-28,80.7,65.7,53.9,65.9,55.2,49.7,96,71,46,29.96,29.73,8,2,26,0.50
2013-9-29,70.8,56.3,45.2,52.8,45.5,36.4,98,72,29,29.99,29.87,2,0,7,0.51
2013-9-30,72.8,57.6,42.6,47.8,44.5,41.3,96,66,36,29.92,29.74,5,1,14,0.00
2013-10-1,81.2,65.4,50.8,61.2,56.7,46.4,92,75,48,29.87,29.73,6,1,24,0.00
2013-10-2,76.1,61.0,46.4,55.2,45.3,34.5,98,64,24,30.03,29.87,1,0,11,0.00
2013-10-3,73.9,65.7,56.6,66.8,60.4,41.5,96,84,54,29.89,29.73,5,1,15,0.04
2013-10-4,66.3,63.2,59.9,65.7,62.2,58.8,98,97,95,29.93,29.77,2,0,8,0.54
2013-10-5,72.1,65.0,59.9,70.0,63.8,58.8,99,96,83,29.86,29.65,2,0,10,0.58
2013-10-6,61.3,52.6,45.2,60.2,43.6,37.5,96,73,47,29.68,29.59,5,0,13,0.06
2013-10-7,65.8,52.2,44.2,47.2,44.1,40.3,96,77,40,30.01,29.63,9,2,21,0.10
2013-10-8,74.7,56.6,40.1,50.9,44.5,39.1,98,69,33,30.08,30.00,5,1,15,0.00
2013-10-9,73.5,58.7,47.3,50.2,45.4,37.1,93,66,27,30.14,30.04,4,0,12,0.00
2013-10-10,70.9,51.0,44.3,54.3,46.1,43.1,98,86,40,30.09,30.05,2,0,9,0.00
2013-10-11,65.8,60.9,55.1,55.9,51.4,49.5,92,71,61,29.97,29.82,1,0,12,0.00
2013-10-12,69.4,57.8,41.6,60.3,48.1,36.5,94,72,39,30.15,29.81,3,0,16,0.19
2013-10-13,60.4,46.9,36.2,41.6,37.0,32.6,94,72,36,30.35,30.16,5,1,16,0.00
2013-10-14,60.4,49.0,33.7,46.0,40.1,32.4,97,74,50,30.36,30.09,3,0,12,0.00
2013-10-15,58.9,53.1,47.4,58.1,49.2,42.5,97,87,74,30.09,29.65,1,0,12,0.19
2013-10-16,53.9,51.5,47.4,48.9,46.5,42.6,95,83,76,29.85,29.69,5,2,14,0.01
2013-10-17,46.7,44.4,39.9,44.9,42.1,37.5,95,92,82,29.84,29.76,0,0,0,0.08
2013-10-18,48.8,42.8,36.9,42.9,38.1,35.6,96,84,71,29.88,29.73,5,0,6,0.00
2013-10-19,53.3,43.0,35.2,40.1,36.8,31.7,95,81,48,29.85,29.66,20,0,20,0.02
2013-10-20,48.3,40.5,29.3,46.1,37.5,28.0,97,90,65,29.80,29.64,11,0,11,0.10
2013-10-21,44.9,38.9,30.0,42.9,29.7,22.2,94,70,53,29.88,29.67,23,2,23,0.01
2013-10-22,46.0,36.1,26.0,29.8,25.6,21.3,84,66,47,29.91,29.84,10,0,10,0.00
2013-10-23,42.8,34.6,26.9,28.0,24.8,19.7,89,69,41,29.95,29.88,15,1,16,0.00
2013-10-24,42.9,35.3,27.6,27.0,24.8,21.5,85,66,46,30.23,29.94,18,2,18,0.00
2013-10-25,50.7,38.6,23.6,30.0,25.3,21.1,92,62,40,30.30,29.83,22,1,22,0.00
2013-10-26,50.1,45.0,37.9,35.0,28.4,24.8,68,53,41,29.99,29.70,25,3,25,0.00
2013-10-27,54.1,40.3,27.8,31.3,28.0,24.8,91,64,35,29.99,29.83,20,1,20,0.00
2013-10-28,43.2,39.4,35.0,32.8,30.1,26.7,82,69,62,30.36,29.97,16,1,16,0.00
2013-10-29,53.2,43.3,36.2,42.0,36.1,27.0,92,76,59,30.34,30.06,11,0,11,0.00
2013-10-30,54.7,49.9,43.2,52.4,47.8,40.5,97,93,88,30.06,29.66,10,0,10,0.00
2013-10-31,60.7,55.2,43.3,60.1,54.3,39.9,98,97,88,29.66,29.14,21,2,21,1.01
2013-11-1,45.2,43.0,40.8,42.9,40.1,38.0,95,89,84,29.67,29.23,21,1,21,0.07
2013-11-2,43.3,39.8,36.5,40.0,37.4,35.0,96,91,79,30.09,29.67,12,1,12,0.05
2013-11-3,50.5,39.4,27.8,40.6,33.1,26.8,98,80,48,30.23,30.09,14,1,14,0.00
2013-11-4,54.1,48.3,41.9,44.1,38.5,34.9,80,69,56,30.16,29.96,22,2,22,0.00
2013-11-5,50.1,48.6,47.3,45.4,44.2,43.6,89,85,79,30.17,30.08,1,0,1,0.00
2013-11-6,40.9,33.6,27.9,32.6,25.5,22.5,83,72,65,30.09,29.96,12,1,12,0.31
2013-11-7,40.2,33.1,25.0,30.0,27.0,22.2,92,78,64,30.17,30.09,14,1,14,0.00
2013-11-8,45.4,35.7,22.9,32.5,28.4,21.0,95,76,59,30.24,29.74,24,1,24,0.01
2013-11-9,51.6,45.9,39.5,38.9,34.1,23.5,79,63,49,29.99,29.68,32,6,32,0.00
2013-11-10,48.3,41.6,36.9,30.8,27.7,25.5,66,58,43,30.25,29.99,21,3,21,0.00
2013-11-11,42.3,32.4,22.2,33.5,23.5,11.7,93,70,57,30.50,29.98,21,2,21,0.09
2013-11-12,29.7,22.9,17.2,15.1,12.5,9.2,76,65,44,30.67,30.50,18,2,18,0.00
2013-11-13,39.3,29.2,17.2,18.5,14.8,11.5,80,57,36,30.51,30.00,25,3,25,0.00
2013-11-14,46.2,37.7,30.7,30.2,23.5,16.5,71,56,47,30.00,29.82,18,1,18,0.00
2013-11-15,53.9,42.8,34.0,34.7,30.7,26.2,83,63,47,29.87,29.80,13,1,13,0.00
2013-11-16,58.0,48.8,37.0,54.2,45.8,32.6,97,90,82,29.82,29.40,27,4,27,0.06
2013-11-17,58.1,50.2,39.1,57.0,47.1,31.2,99,89,70,29.59,29.06,32,5,32,1.25
2013-11-18,39.2,32.6,24.7,32.2,23.5,18.9,79,69,57,30.20,29.59,25,7,31,0.00
2013-11-19,40.2,30.4,18.3,28.6,22.5,15.6,92,74,49,30.32,30.19,9,0,9,0.00
2013-11-20,41.1,35.6,30.4,34.0,27.9,24.3,95,75,52,30.19,30.02,21,2,21,0.03
2013-11-21,43.3,39.5,35.3,39.5,36.5,34.0,96,89,79,30.18,30.04,11,0,11,0.00
2013-11-22,37.8,30.2,22.4,34.6,23.6,13.9,94,77,57,30.41,30.16,18,2,18,0.04
2013-11-23,24.4,17.3,10.5,14.9,4.4,-0.4,70,56,45,30.68,30.35,24,6,24,0.00
2013-11-24,26.0,17.3,8.1,6.8,2.8,-0.8,74,54,32,30.67,30.22,24,1,24,0.00
2013-11-25,28.7,25.0,20.6,24.9,18.4,6.4,92,77,48,30.23,29.96,22,1,22,0.00
2013-11-26,30.3,24.4,11.9,25.5,14.8,-0.0,86,67,49,30.17,29.95,21,3,21,0.00
2013-11-27,25.4,17.3,7.7,11.9,7.0,1.0,78,64,50,30.23,30.15,14,2,14,0.00
2013-11-28,28.2,21.8,12.8,15.1,12.2,7.5,81,67,56,30.46,30.12,11,0,11,0.00
2013-11-29,29.8,20.0,6.1,19.7,12.2,2.3,87,72,53,30.60,30.28,11,0,11,0.01
2013-11-30,43.8,33.2,26.3,30.4,25.4,19.4,88,73,57,30.29,29.96,15,1,15,0.02
2013-12-1,39.2,31.5,26.1,28.3,25.2,22.5,90,78,56,30.08,29.92,10,0,10,0.00
2013-12-2,39.3,31.7,20.5,32.2,27.0,18.3,95,83,67,29.93,29.68,13,1,13,0.04
2013-12-3,39.2,36.9,33.7,38.7,36.1,32.2,98,97,94,29.69,29.61,14,2,14,0.10
2013-12-4,49.2,41.8,34.9,48.9,41.2,30.6,99,98,85,29.68,29.37,23,1,23,0.04
2013-12-5,34.7,22.6,14.1,30.7,13.4,5.8,85,68,57,30.24,29.54,26,6,26,0.00
2013-12-6,15.9,10.3,6.3,6.3,0.6,-2.3,74,64,51,30.52,30.21,16,5,16,0.00
2013-12-7,14.0,6.6,0.3,0.6,-3.2,-7.2,71,64,48,30.67,30.52,19,3,19,0.00
2013-12-8,21.8,15.3,5.4,19.6,8.9,-3.5,91,76,57,30.59,29.90,14,0,14,0.00
2013-12-9,17.5,9.2,-6.8,14.8,2.5,-13.7,89,74,60,30.16,29.88,23,1,23,0.01
2013-12-10,18.1,7.0,-7.9,8.0,-1.5,-14.2,78,68,56,30.21,29.90,22,2,22,0.00
2013-12-11,12.8,5.8,-3.1,9.0,-3.3,-13.2,85,66,49,30.48,30.20,18,3,18,0.00
2013-12-12,16.2,13.0,-2.0,8.4,4.1,-10.3,82,67,54,30.36,30.11,10,0,11,0.00
2013-12-13,24.1,18.7,12.8,15.7,12.2,7.5,79,76,68,30.17,30.12,15,2,15,0.00
2013-12-14,25.6,21.2,18.0,21.4,17.4,13.5,87,85,79,30.13,29.88,18,2,18,0.00
2013-12-15,19.7,9.8,1.5,16.3,-0.7,-9.9,87,62,50,30.11,29.86,23,6,23,0.00
2013-12-16,14.3,6.2,-5.0,9.4,-1.8,-12.6,84,69,51,30.14,29.97,9,0,9,0.00
2013-12-17,34.6,24.3,13.3,24.2,17.6,9.6,90,76,58,30.00,29.84,20,3,20,0.01
2013-12-18,32.4,22.5,7.6,23.4,12.8,3.0,84,67,47,30.06,29.71,18,1,18,0.00
2013-12-19,31.5,26.8,20.0,29.2,22.9,17.5,93,85,67,29.93,29.72,18,2,18,0.00
2013-12-20,24.7,23.5,22.2,22.2,20.9,19.7,93,90,88,29.84,29.75,18,3,18,0.00
2013-12-21,28.5,25.6,22.9,26.9,24.1,21.2,95,94,93,29.84,29.65,15,1,15,0.00
2013-12-22,28.4,23.7,18.8,26.4,20.9,16.0,93,89,82,30.06,29.63,18,3,18,0.00
2013-12-23,18.9,11.1,-0.2,16.7,6.5,-6.6,91,82,73,30.39,30.06,11,0,11,0.00
2013-12-24,10.0,1.8,-10.7,5.6,-4.7,-16.4,83,74,61,30.53,30.27,10,0,10,0.00
2013-12-25,23.2,19.1,10.0,20.0,15.3,6.1,88,85,78,30.27,30.01,15,1,15,0.00
2013-12-26,24.2,19.2,6.7,21.1,14.2,2.6,89,81,70,30.20,30.02,12,0,12,0.00
2013-12-27,36.9,26.3,10.5,29.3,21.6,7.7,93,83,73,30.21,29.94,16,1,16,0.00
2013-12-28,42.8,35.1,23.5,32.0,28.4,21.1,93,77,65,29.97,29.67,20,1,20,0.30
2013-12-29,38.8,19.8,-3.1,30.3,12.7,-12.1,90,74,62,30.20,29.65,22,5,22,0.00
2013-12-30,1.1,-3.8,-11.7,-4.4,-13.3,-20.0,77,63,48,30.33,30.18,6,1,9,0.00
2013-12-31,6.7,3.3,-1.0,1.3,-3.8,-10.4,80,72,58,30.34,30.17,13,0,13,0.00
2014-1-1,9.2,4.6,0.0,-0.3,-5.1,-12.2,69,63,58,30.36,30.26,15,4,15,0.00
2014-1-2,9.9,5.0,-5.2,0.5,-3.1,-13.1,79,69,60,30.40,30.23,18,4,18,0.00